createdAt,value
2023-04-02T00:01:19.659Z,10.28
2023-04-02T00:04:05.632Z,13.39
2023-04-02T00:06:40.557Z,11.80
2023-04-02T00:09:32.517Z,11.78
2023-04-02T00:12:00.265Z,10.40
2023-04-02T00:14:28.910Z,10.69
2023-04-02T00:16:57.124Z,11.32
2023-04-02T00:19:26.706Z,10.19
2023-04-02T00:21:55.795Z,12.72
2023-04-02T00:24:23.458Z,11.33
2023-04-02T00:26:51.674Z,12.65
2023-04-02T00:29:19.616Z,10.88
2023-04-02T00:31:47.743Z,9.60
2023-04-02T00:34:16.410Z,12.97
2023-04-02T00:36:44.206Z,12.43
2023-04-02T00:39:14.799Z,14.21
2023-04-02T00:41:47.084Z,12.95
2023-04-02T00:44:22.062Z,11.42
2023-04-02T00:46:50.036Z,12.52
2023-04-02T00:49:25.121Z,11.51
2023-04-02T00:51:54.268Z,9.96
2023-04-02T00:54:23.737Z,13.93
2023-04-02T00:56:52.110Z,11.98
2023-04-02T00:59:21.905Z,10.27
2023-04-02T01:01:54.271Z,10.78
2023-04-02T01:04:34.112Z,11.34
2023-04-02T01:07:04.970Z,12.17
2023-04-02T01:09:37.545Z,12.24
2023-04-02T01:12:29.084Z,12.75
2023-04-02T01:14:57.588Z,14.56
2023-04-02T01:17:30.396Z,12.02
2023-04-02T01:20:08.871Z,8.84
2023-04-02T01:22:36.936Z,9.81
2023-04-02T01:25:06.528Z,11.20
2023-04-02T01:27:35.117Z,12.13
2023-04-02T01:30:05.110Z,11.84
2023-04-02T01:32:32.780Z,11.19
2023-04-02T01:35:01.260Z,10.18
2023-04-02T01:37:34.125Z,11.85
2023-04-02T01:40:06.212Z,11.78
2023-04-02T01:42:34.846Z,10.17
2023-04-02T01:45:04.933Z,10.75
2023-04-02T01:47:33.173Z,12.02
2023-04-02T01:50:02.403Z,9.81
2023-04-02T01:52:35.796Z,10.38
2023-04-02T01:55:04.477Z,12.97
2023-04-02T01:57:32.385Z,10.57
2023-04-02T02:00:00.316Z,12.18
2023-04-02T02:02:29.467Z,9.33
2023-04-02T02:04:57.200Z,11.08
2023-04-02T02:07:25.986Z,11.71
2023-04-02T02:09:55.614Z,14.35
2023-04-02T02:12:23.320Z,11.93
2023-04-02T02:14:52.067Z,11.40
2023-04-02T02:17:26.595Z,10.66
2023-04-02T02:19:55.948Z,10.44
2023-04-02T02:22:27.083Z,11.51
2023-04-02T02:24:54.814Z,12.16
2023-04-02T02:27:49.669Z,11.05
2023-04-02T02:30:18.969Z,11.24
2023-04-02T02:32:49.005Z,11.97
2023-04-02T02:35:19.451Z,13.57
2023-04-02T02:37:49.001Z,10.12
2023-04-02T02:40:17.518Z,13.14
2023-04-02T02:42:45.767Z,13.65
2023-04-02T02:45:14.157Z,12.82
2023-04-02T02:47:41.770Z,10.38
2023-04-02T02:50:13.442Z,12.43
2023-04-02T02:52:42.957Z,12.10
2023-04-02T02:55:13.908Z,10.81
2023-04-02T02:57:51.292Z,11.36
2023-04-02T03:00:20.366Z,11.57
2023-04-02T03:02:50.030Z,11.27
2023-04-02T03:05:20.604Z,11.22
2023-04-02T03:07:52.165Z,14.14
2023-04-02T03:10:21.038Z,11.43
2023-04-02T03:12:51.286Z,12.47
2023-04-02T03:15:20.822Z,12.27
2023-04-02T03:17:49.986Z,11.11
2023-04-02T03:20:18.952Z,12.31
2023-04-02T03:22:47.939Z,11.68
2023-04-02T03:25:21.523Z,13.05
2023-04-02T03:27:49.282Z,10.21
2023-04-02T03:30:23.194Z,9.31
2023-04-02T03:32:52.215Z,11.98
2023-04-02T03:35:21.610Z,13.71
2023-04-02T03:37:51.415Z,13.38
2023-04-02T03:40:22.215Z,10.07
2023-04-02T03:42:50.755Z,8.29
2023-04-02T03:45:20.078Z,10.15
2023-04-02T03:47:48.646Z,12.17
2023-04-02T03:50:17.854Z,9.86
2023-04-02T03:52:45.665Z,10.55
2023-04-02T03:55:17.422Z,9.65
2023-04-02T03:57:51.210Z,9.83
2023-04-02T04:00:20.868Z,11.64
2023-04-02T04:02:57.424Z,10.41
2023-04-02T04:05:25.850Z,12.08
2023-04-02T04:07:56.890Z,14.28
2023-04-02T04:10:25.839Z,13.70
2023-04-02T04:12:55.622Z,10.80
2023-04-02T04:15:26.566Z,10.14
2023-04-02T04:17:55.157Z,11.27
2023-04-02T04:20:30.949Z,11.92
2023-04-02T04:23:08.763Z,11.42
2023-04-02T04:25:37.159Z,10.00
2023-04-02T04:28:18.443Z,11.76
2023-04-02T04:30:47.627Z,14.40
2023-04-02T04:33:23.154Z,12.59
2023-04-02T04:35:55.734Z,11.64
2023-04-02T04:38:27.769Z,10.03
2023-04-02T04:40:57.794Z,12.20
2023-04-02T04:43:33.349Z,11.64
2023-04-02T04:46:03.312Z,14.11
2023-04-02T04:48:33.965Z,14.35
2023-04-02T04:51:05.023Z,11.14
2023-04-02T04:53:33.325Z,12.55
2023-04-02T04:56:16.079Z,13.16
2023-04-02T04:58:49.449Z,12.48
2023-04-02T05:01:18.639Z,11.82
2023-04-02T05:03:47.835Z,12.81
2023-04-02T05:06:18.896Z,14.12
2023-04-02T05:08:46.893Z,11.84
2023-04-02T05:11:16.102Z,13.38
2023-04-02T05:13:46.144Z,13.68
2023-04-02T05:16:16.806Z,14.89
2023-04-02T05:18:45.253Z,14.87
2023-04-02T05:21:15.433Z,13.85
2023-04-02T05:23:45.759Z,13.25
2023-04-02T05:26:15.469Z,13.61
2023-04-02T05:28:44.432Z,13.45
2023-04-02T05:31:13.621Z,14.13
2023-04-02T05:33:43.802Z,12.15
2023-04-02T05:36:12.723Z,13.34
2023-04-02T05:38:46.460Z,12.74
2023-04-02T05:41:19.797Z,12.25
2023-04-02T05:43:48.829Z,13.11
2023-04-02T05:46:17.675Z,10.78
2023-04-02T05:48:49.297Z,10.77
2023-04-02T05:51:18.236Z,12.60
2023-04-02T05:53:48.264Z,12.33
2023-04-02T05:56:16.910Z,11.60
2023-04-02T05:58:46.255Z,11.84
2023-04-02T06:01:34.421Z,12.58
2023-04-02T06:04:12.380Z,14.13
2023-04-02T06:06:50.723Z,11.78
2023-04-02T06:09:21.153Z,12.45
2023-04-02T06:11:51.300Z,13.55
2023-04-02T06:14:20.453Z,15.04
2023-04-02T06:16:49.370Z,10.43
2023-04-02T06:19:20.052Z,11.61
2023-04-02T06:21:49.779Z,11.35
2023-04-02T06:24:20.259Z,11.19
2023-04-02T06:26:49.042Z,12.30
2023-04-02T06:29:19.181Z,12.75
2023-04-02T06:31:50.007Z,13.95
2023-04-02T06:34:21.169Z,13.15
2023-04-02T06:36:58.314Z,13.53
2023-04-02T06:39:27.118Z,12.29
2023-04-02T06:41:57.148Z,11.63
2023-04-02T06:44:32.752Z,14.13
2023-04-02T06:47:30.204Z,13.01
2023-04-02T06:50:02.123Z,11.31
2023-04-02T06:52:31.160Z,13.49
2023-04-02T06:54:59.656Z,12.92
2023-04-02T06:57:27.445Z,12.77
2023-04-02T06:59:55.185Z,12.07
2023-04-02T07:02:27.968Z,13.64
2023-04-02T07:04:56.848Z,11.91
2023-04-02T07:07:27.213Z,14.55
2023-04-02T07:09:54.836Z,12.82
2023-04-02T07:12:23.807Z,13.11
2023-04-02T07:14:51.818Z,15.45
2023-04-02T07:17:20.291Z,15.89
2023-04-02T07:19:49.544Z,13.95
2023-04-02T07:22:19.833Z,12.19
2023-04-02T07:24:53.360Z,11.97
2023-04-02T07:27:20.994Z,12.16
2023-04-02T07:29:48.611Z,12.71
2023-04-02T07:32:16.309Z,14.29
2023-04-02T07:34:43.924Z,11.31
2023-04-02T07:37:13.004Z,10.82
2023-04-02T07:39:40.833Z,12.39
2023-04-02T07:42:09.831Z,14.55
2023-04-02T07:44:37.571Z,13.87
2023-04-02T07:47:05.398Z,14.70
2023-04-02T07:49:33.112Z,14.37
2023-04-02T07:52:00.775Z,15.69
2023-04-02T07:54:28.439Z,16.84
2023-04-02T07:56:56.342Z,16.83
2023-04-02T07:59:25.430Z,13.76
2023-04-02T08:01:53.479Z,15.42
2023-04-02T08:04:21.904Z,15.55
2023-04-02T08:06:50.029Z,14.98
2023-04-02T08:09:17.788Z,14.04
2023-04-02T08:11:46.431Z,13.71
2023-04-02T08:14:14.242Z,14.83
2023-04-02T08:16:47.685Z,16.36
2023-04-02T08:19:15.535Z,14.15
2023-04-02T08:21:43.253Z,13.30
2023-04-02T08:24:10.895Z,14.29
2023-04-02T08:26:38.644Z,13.97
2023-04-02T08:29:06.428Z,13.54
2023-04-02T08:31:34.049Z,12.93
2023-04-02T08:34:03.283Z,13.23
2023-04-02T08:36:31.480Z,13.94
2023-04-02T08:38:59.058Z,12.88
2023-04-02T08:41:28.531Z,14.52
2023-04-02T08:43:59.902Z,12.49
2023-04-02T08:46:27.910Z,14.66
2023-04-02T08:48:56.868Z,16.33
2023-04-02T08:51:26.419Z,12.19
2023-04-02T08:53:54.732Z,15.83
2023-04-02T08:56:25.257Z,16.67
2023-04-02T08:58:54.077Z,15.29
2023-04-02T09:01:24.028Z,12.82
2023-04-02T09:03:52.149Z,12.06
2023-04-02T09:06:20.070Z,13.29
2023-04-02T09:08:49.708Z,12.81
2023-04-02T09:11:21.595Z,12.30
2023-04-02T09:13:50.055Z,13.95
2023-04-02T09:16:21.297Z,12.46
2023-04-02T09:22:07.596Z,12.35
2023-04-02T09:24:35.895Z,12.34
2023-04-02T09:27:03.584Z,10.44
2023-04-02T09:29:41.359Z,12.48
2023-04-02T09:32:24.234Z,12.71
2023-04-02T09:34:52.272Z,13.29
2023-04-02T09:37:22.956Z,14.64
2023-04-02T09:39:50.938Z,15.57
2023-04-02T09:42:31.709Z,18.44
2023-04-02T09:45:13.025Z,14.06
2023-04-02T09:47:42.447Z,12.31
2023-04-02T09:50:29.624Z,11.67
2023-04-02T09:52:58.806Z,13.16
2023-04-02T09:55:27.425Z,15.88
2023-04-02T09:58:08.212Z,13.26
2023-04-02T10:00:36.496Z,12.72
2023-04-02T10:03:05.699Z,15.64
2023-04-02T10:08:10.046Z,13.32
2023-04-02T10:10:38.642Z,12.91
2023-04-02T10:13:07.492Z,14.69
2023-04-02T10:15:36.517Z,14.27
2023-04-02T10:18:07.191Z,15.38
2023-04-02T10:20:41.827Z,16.75
2023-04-02T10:23:18.317Z,16.00
2023-04-02T10:25:47.885Z,17.02
2023-04-02T10:28:17.952Z,15.84
2023-04-02T10:30:50.810Z,15.07
2023-04-02T10:33:20.073Z,13.59
2023-04-02T10:35:48.892Z,15.21
2023-04-02T10:38:22.692Z,14.76
2023-04-02T10:40:51.706Z,15.46
2023-04-02T10:43:40.590Z,16.10
2023-04-02T10:46:09.977Z,12.86
2023-04-02T10:48:39.138Z,13.72
2023-04-02T10:51:07.376Z,13.18
2023-04-02T10:53:38.579Z,16.92
2023-04-02T10:56:08.814Z,14.83
2023-04-02T10:58:38.483Z,15.13
2023-04-02T11:01:07.925Z,14.33
2023-04-02T11:03:37.247Z,17.46
2023-04-02T11:06:06.073Z,18.79
2023-04-02T11:08:39.442Z,15.11
2023-04-02T11:11:08.448Z,15.29
2023-04-02T11:13:37.672Z,16.30
2023-04-02T11:16:05.367Z,17.45
2023-04-02T11:18:35.953Z,15.65
2023-04-02T11:21:04.520Z,14.70
2023-04-02T11:23:56.693Z,15.05
2023-04-02T11:26:32.087Z,16.42
2023-04-02T11:29:04.081Z,15.84
2023-04-02T11:31:32.022Z,15.32
2023-04-02T11:33:59.738Z,12.95
2023-04-02T11:36:42.332Z,14.07
2023-04-02T11:39:17.295Z,13.64
2023-04-02T11:42:16.047Z,13.20
2023-04-02T11:44:43.767Z,15.78
2023-04-02T11:47:18.768Z,16.62
2023-04-02T11:50:01.600Z,13.45
2023-04-02T11:52:34.067Z,15.75
2023-04-02T11:55:04.839Z,16.08
2023-04-02T11:57:41.912Z,15.93
2023-04-02T12:00:18.000Z,16.29
2023-04-02T12:02:49.918Z,15.49
2023-04-02T12:05:20.499Z,18.06
2023-04-02T12:07:55.711Z,18.19
2023-04-02T12:10:25.465Z,19.52
2023-04-02T12:12:53.112Z,19.42
2023-04-02T12:15:35.033Z,17.58
2023-04-02T12:18:06.631Z,16.03
2023-04-02T12:20:35.719Z,18.05
2023-04-02T12:23:03.502Z,18.31
2023-04-02T12:25:32.933Z,18.87
2023-04-02T12:28:07.651Z,17.57
2023-04-02T12:30:35.962Z,18.96
2023-04-02T12:33:15.654Z,18.76
2023-04-02T12:35:45.463Z,19.13
2023-04-02T12:38:19.617Z,18.79
2023-04-02T12:40:53.903Z,16.62
2023-04-02T12:43:27.919Z,16.10
2023-04-02T12:45:56.382Z,16.70
2023-04-02T12:48:24.060Z,18.21
2023-04-02T12:50:51.678Z,16.56
2023-04-02T12:53:23.032Z,15.26
2023-04-02T12:55:51.312Z,16.66
2023-04-02T12:58:27.787Z,15.02
2023-04-02T13:01:09.785Z,21.06
2023-04-02T13:03:37.890Z,18.73
2023-04-02T13:06:05.834Z,21.91
2023-04-02T13:08:38.457Z,19.66
2023-04-02T13:11:06.221Z,19.37
2023-04-02T13:13:35.842Z,17.35
2023-04-02T13:16:04.686Z,16.89
2023-04-02T13:18:32.466Z,18.06
2023-04-02T13:21:00.451Z,15.04
2023-04-02T13:23:36.003Z,18.38
2023-04-02T13:26:04.072Z,22.42
2023-04-02T13:28:31.752Z,24.46
2023-04-02T13:31:00.790Z,24.50
2023-04-02T13:33:28.464Z,21.76
2023-04-02T13:35:56.175Z,19.69
2023-04-02T13:38:23.914Z,19.49
2023-04-02T13:40:51.670Z,18.74
2023-04-02T13:43:20.093Z,18.27
2023-04-02T13:45:48.690Z,19.73
2023-04-02T13:48:18.343Z,20.35
2023-04-02T13:50:46.610Z,16.41
2023-04-02T13:53:16.313Z,18.15
2023-04-02T13:55:43.991Z,16.51
2023-04-02T13:58:11.650Z,15.21
2023-04-02T14:00:39.299Z,15.85
2023-04-02T14:03:07.577Z,16.58
2023-04-02T14:05:39.072Z,18.05
2023-04-02T14:08:08.946Z,18.72
2023-04-02T14:10:52.243Z,17.07
2023-04-02T14:13:22.894Z,15.98
2023-04-02T14:15:53.449Z,17.33
2023-04-02T14:18:31.974Z,17.11
2023-04-02T14:21:04.279Z,17.34
2023-04-02T14:23:38.228Z,16.37
2023-04-02T14:26:08.310Z,14.75
2023-04-02T14:28:40.406Z,16.17
2023-04-02T14:31:08.979Z,16.95
2023-04-02T14:33:38.124Z,18.01
2023-04-02T14:36:09.238Z,20.56
2023-04-02T14:38:37.752Z,14.63
2023-04-02T14:41:06.016Z,15.58
2023-04-02T14:43:34.045Z,16.64
2023-04-02T14:46:02.731Z,15.53
2023-04-02T14:48:38.798Z,15.49
2023-04-02T14:51:08.613Z,20.20
2023-04-02T14:53:40.005Z,17.42
2023-04-02T14:56:08.065Z,15.33
2023-04-02T14:58:36.846Z,16.51
2023-04-02T15:01:05.237Z,18.64
2023-04-02T15:03:34.368Z,16.89
2023-04-02T15:06:03.486Z,14.83
2023-04-02T15:08:32.699Z,14.81
2023-04-02T15:11:04.950Z,17.66
2023-04-02T15:13:36.026Z,14.58
2023-04-02T15:16:07.542Z,16.79
2023-04-02T15:18:35.863Z,14.60
2023-04-02T15:21:05.887Z,16.46
2023-04-02T15:23:42.473Z,13.79
2023-04-02T15:26:13.854Z,15.93
2023-04-02T15:28:42.983Z,18.21
2023-04-02T15:31:13.094Z,16.24
2023-04-02T15:33:44.667Z,17.39
2023-04-02T15:36:26.226Z,16.68
2023-04-02T15:38:57.241Z,16.28
2023-04-02T15:41:26.291Z,16.16
2023-04-02T15:43:56.550Z,16.57
2023-04-02T15:46:25.481Z,13.69
2023-04-02T15:49:02.508Z,14.68
2023-04-02T15:51:34.755Z,17.35
2023-04-02T15:54:04.862Z,15.02
2023-04-02T15:56:36.138Z,14.38
2023-04-02T15:59:09.132Z,14.34
2023-04-02T16:01:37.560Z,14.52
2023-04-02T16:04:12.823Z,17.35
2023-04-02T16:06:41.308Z,17.22
2023-04-02T16:09:13.233Z,15.40
2023-04-02T16:11:40.976Z,15.15
2023-04-02T16:14:21.133Z,15.67
2023-04-02T16:16:49.245Z,16.19
2023-04-02T16:19:20.862Z,17.19
2023-04-02T16:21:50.145Z,16.64
2023-04-02T16:24:19.120Z,18.12
2023-04-02T16:26:50.415Z,16.26
2023-04-02T16:29:23.413Z,15.20
2023-04-02T16:31:51.662Z,13.37
2023-04-02T16:34:21.610Z,13.61
2023-04-02T16:36:51.068Z,13.92
2023-04-02T16:39:23.859Z,13.08
2023-04-02T16:41:53.829Z,13.97
2023-04-02T16:44:23.331Z,13.87
2023-04-02T16:46:54.378Z,12.72
2023-04-02T16:49:23.674Z,13.45
2023-04-02T16:51:54.132Z,15.00
2023-04-02T16:54:24.146Z,13.35
2023-04-02T16:56:55.814Z,14.83
2023-04-02T16:59:25.299Z,13.17
2023-04-02T17:01:55.340Z,17.11
2023-04-02T17:04:46.427Z,15.83
2023-04-02T17:07:17.166Z,14.66
2023-04-02T17:09:47.466Z,17.19
2023-04-02T17:12:16.615Z,15.61
2023-04-02T17:14:45.273Z,15.30
2023-04-02T17:17:13.075Z,14.82
2023-04-02T17:19:40.772Z,15.27
2023-04-02T17:22:10.942Z,14.10
2023-04-02T17:24:40.010Z,15.29
2023-04-02T17:27:12.451Z,13.27
2023-04-02T17:29:40.727Z,14.56
2023-04-02T17:32:13.407Z,12.54
2023-04-02T17:34:41.265Z,11.76
2023-04-02T17:37:12.091Z,12.25
2023-04-02T17:39:41.829Z,13.75
2023-04-02T17:42:16.513Z,12.31
2023-04-02T17:44:46.169Z,14.86
2023-04-02T17:47:15.860Z,12.78
2023-04-02T17:49:45.271Z,11.84
2023-04-02T17:52:14.299Z,11.49
2023-04-02T17:54:43.593Z,14.84
2023-04-02T17:57:24.263Z,11.87
2023-04-02T17:59:54.869Z,11.21
2023-04-02T18:02:29.145Z,13.08
2023-04-02T18:04:57.816Z,14.07
2023-04-02T18:07:28.495Z,12.82
2023-04-02T18:09:58.209Z,11.94
2023-04-02T18:12:30.729Z,13.38
2023-04-02T18:15:11.184Z,12.99
2023-04-02T18:17:40.886Z,13.36
2023-04-02T18:20:11.930Z,13.04
2023-04-02T18:22:42.129Z,13.86
2023-04-02T18:25:16.379Z,12.50
2023-04-02T18:27:49.322Z,12.40
2023-04-02T18:30:18.682Z,10.11
2023-04-02T18:33:01.225Z,11.85
2023-04-02T18:35:30.963Z,10.77
2023-04-02T18:38:01.776Z,12.08
2023-04-02T18:40:32.742Z,10.62
2023-04-02T18:43:03.598Z,11.09
2023-04-02T18:45:34.103Z,11.17
2023-04-02T18:48:02.964Z,11.18
2023-04-02T18:50:31.535Z,13.34
2023-04-02T18:52:59.232Z,12.87
2023-04-02T18:55:28.192Z,11.37
2023-04-02T18:57:57.434Z,12.14
2023-04-02T19:00:28.690Z,11.56
2023-04-02T19:03:01.428Z,13.12
2023-04-02T19:05:32.274Z,11.16
2023-04-02T19:08:00.944Z,11.66
2023-04-02T19:10:30.420Z,11.16
2023-04-02T19:12:58.215Z,11.94
2023-04-02T19:15:28.195Z,9.87
2023-04-02T19:17:56.383Z,11.95
2023-04-02T19:20:26.650Z,10.27
2023-04-02T19:22:55.911Z,10.84
2023-04-02T19:25:31.216Z,9.61
2023-04-02T19:28:02.835Z,10.64
2023-04-02T19:30:38.620Z,11.03
2023-04-02T19:33:07.498Z,10.91
2023-04-02T19:35:36.499Z,9.76
2023-04-02T19:38:07.582Z,10.05
2023-04-02T19:40:38.263Z,9.32
2023-04-02T19:43:05.914Z,9.92
2023-04-02T19:45:34.898Z,9.94
2023-04-02T19:48:09.748Z,10.26
2023-04-02T19:50:37.422Z,11.23
2023-04-02T19:53:05.107Z,9.53
2023-04-02T19:55:32.744Z,10.74
2023-04-02T19:58:08.974Z,11.00
2023-04-02T20:00:45.222Z,9.48
2023-04-02T20:03:14.162Z,8.21
2023-04-02T20:05:41.802Z,9.79
2023-04-02T20:08:10.495Z,10.32
2023-04-02T20:10:38.657Z,8.42
2023-04-02T20:13:06.557Z,9.13
2023-04-02T20:15:34.717Z,9.54
2023-04-02T20:18:02.574Z,9.31
2023-04-02T20:20:31.661Z,9.14
2023-04-02T20:22:59.296Z,9.33
2023-04-02T20:25:26.950Z,10.93
2023-04-02T20:27:54.612Z,9.16
2023-04-02T20:30:22.201Z,8.34
2023-04-02T20:32:49.962Z,10.43
2023-04-02T20:35:17.670Z,9.05
2023-04-02T20:37:46.689Z,9.49
2023-04-02T20:40:14.357Z,10.20
2023-04-02T20:42:42.049Z,9.21
2023-04-02T20:45:10.445Z,9.14
2023-04-02T20:47:38.424Z,9.10
2023-04-02T20:50:06.882Z,9.05
2023-04-02T20:52:34.627Z,9.55
2023-04-02T20:55:03.804Z,9.69
2023-04-02T20:57:31.531Z,10.13
2023-04-02T20:59:59.496Z,9.63
2023-04-02T21:02:27.507Z,9.22
2023-04-02T21:04:56.217Z,8.71
2023-04-02T21:07:23.869Z,8.96
2023-04-02T21:09:51.796Z,10.05
2023-04-02T21:12:20.779Z,8.89
2023-04-02T21:14:48.682Z,10.01
2023-04-02T21:17:16.446Z,9.03
2023-04-02T21:19:46.263Z,10.25
2023-04-02T21:22:14.039Z,10.57
2023-04-02T21:24:41.773Z,9.42
2023-04-02T21:27:09.405Z,9.14
2023-04-02T21:29:38.696Z,10.83
2023-04-02T21:32:14.500Z,9.40
2023-04-02T21:34:48.753Z,8.54
2023-04-02T21:37:16.433Z,9.16
2023-04-02T21:39:44.096Z,10.55
2023-04-02T21:42:13.127Z,10.61
2023-04-02T21:44:42.185Z,9.96
2023-04-02T21:47:09.883Z,10.63
2023-04-02T21:49:37.602Z,9.07
2023-04-02T21:52:05.343Z,9.58
2023-04-02T21:54:33.017Z,10.48
2023-04-02T21:57:00.718Z,10.92
2023-04-02T21:59:28.365Z,12.33
2023-04-02T22:01:57.451Z,8.87
2023-04-02T22:04:25.693Z,7.22
2023-04-02T22:06:53.695Z,9.20
2023-04-02T22:09:22.412Z,9.08
2023-04-02T22:11:51.168Z,9.33
2023-04-02T22:14:19.857Z,9.42
2023-04-02T22:16:47.572Z,12.05
2023-04-02T22:19:17.065Z,9.26
2023-04-02T22:21:44.771Z,8.58
2023-04-02T22:24:13.124Z,9.18
2023-04-02T22:26:41.291Z,8.42
2023-04-02T22:29:09.189Z,10.08
2023-04-02T22:31:37.007Z,9.80
2023-04-02T22:34:06.059Z,11.24
2023-04-02T22:36:35.292Z,10.43
2023-04-02T22:39:05.359Z,9.40
2023-04-02T22:41:33.182Z,8.94
2023-04-02T22:44:01.230Z,10.16
2023-04-02T22:46:29.619Z,8.99
2023-04-02T22:48:57.291Z,9.84
2023-04-02T22:51:25.408Z,7.11
2023-04-02T22:53:55.320Z,9.30
2023-04-02T22:56:23.520Z,7.46
2023-04-02T22:58:51.305Z,9.11
2023-04-02T23:01:21.204Z,8.52
2023-04-02T23:03:49.142Z,8.31
2023-04-02T23:06:18.493Z,8.86
2023-04-02T23:08:46.455Z,8.86
2023-04-02T23:11:16.467Z,8.80
2023-04-02T23:13:44.461Z,8.95
2023-04-02T23:16:12.714Z,8.19
2023-04-02T23:18:40.651Z,10.17
2023-04-02T23:21:08.488Z,8.54
2023-04-02T23:23:36.316Z,9.32
2023-04-02T23:26:04.901Z,9.05
2023-04-02T23:28:33.932Z,9.00
2023-04-02T23:31:02.707Z,8.40
2023-04-02T23:33:31.993Z,8.48
2023-04-02T23:36:04.431Z,9.80
2023-04-02T23:38:32.143Z,8.18
2023-04-02T23:40:59.782Z,8.44
2023-04-02T23:43:27.416Z,8.77
2023-04-02T23:45:56.456Z,9.35
2023-04-02T23:48:24.082Z,8.46
2023-04-02T23:50:51.873Z,10.59
2023-04-02T23:53:20.011Z,8.43
2023-04-02T23:55:47.826Z,9.50
2023-04-02T23:58:15.523Z,9.38
